Flight Track Log - Related Links

Times and Time Zones

All times are in EDT time to prevent confusion due to time zone crossing. See the ASA525 flight status page for this flight to view local times or setup timezone preferences in your user account.

Time Position Orientation Groundspeed Altitude Reporting Facility
EDT Latitude Longitude Course Direction KTS MPH feet Rate Location/Type
Wed 02:04:10 PM 34.1725 -118.3661 247° West 167 192 2,200  Level Los Angeles Center
Wed 02:05:13 PM 34.1514 -118.4272 247° West 232 267 4,400 2,160 Climbing Los Angeles Center
Wed 02:06:15 PM 34.2147 -118.4686 332° Northwest 270 311 6,700 2,903 Climbing Los Angeles Center
Wed 02:07:17 PM 34.3028 -118.5242 332° Northwest 300 345 10,400 2,903 Climbing Los Angeles Center
Wed 02:08:19 PM 34.3808 -118.5772 331° Northwest 321 369 12,700 1,839 Climbing Los Angeles Center
Wed 02:09:21 PM 34.4664 -118.6325 332° Northwest 354 407 14,200 1,548 Climbing Los Angeles Center
Wed 02:10:23 PM 34.5619 -118.6969 331° Northwest 395 455 15,900 1,984 Climbing Los Angeles Center
Wed 02:11:25 PM 34.6625 -118.7678 330° Northwest 418 481 18,300 3,242 Climbing Los Angeles Center
Wed 02:12:27 PM 34.7842 -118.8500 331° Northwest 416 479 22,600 3,120 Climbing Los Angeles Center
Wed 02:13:30 PM 34.8936 -118.8969 341° North 416 479 24,800 1,872 Climbing Los Angeles Center
Wed 02:14:32 PM 35.0114 -118.9436 342° North 425 489 26,500 1,839 Climbing Los Angeles Center
Wed 02:15:34 PM 35.1247 -118.9856 343° North 427 491 28,600 1,597 Climbing Los Angeles Center
Wed 02:16:36 PM 35.2486 -119.0006 354° North 454 522 29,800 677 Climbing Los Angeles Center
Wed 02:17:38 PM 35.3744 -118.9967 North 455 524 30,000 581 Climbing Los Angeles Center
Wed 02:18:40 PM 35.4983 -119.0058 357° North 456 525 31,000 1,742 Climbing Los Angeles Center
Wed 02:19:42 PM 35.6450 -119.0447 348° North 448 516 33,600 2,129 Climbing Los Angeles Center
Wed 02:20:44 PM 35.7675 -119.0764 348° North 450 518 35,400 1,742 Climbing Los Angeles Center
Wed 02:21:46 PM 35.8881 -119.1069 348° North 445 512 37,200 1,248 Climbing Los Angeles Center
Wed 02:22:49 PM 36.0036 -119.1489 344° North 437 503 38,000 361 Climbing Los Angeles Center
Wed 02:23:59 PM 36.1469 -119.1906 347° North 440 506 38,000  Level Oakland Center
Wed 02:25:00 PM 36.2617 -119.2267 346° North 428 493 38,000  Level Oakland Center
Wed 02:26:02 PM 36.3781 -119.2608 347° North 432 497 38,000  Level Oakland Center
Wed 02:27:03 PM 36.4922 -119.2997 345° North 429 494 38,000  Level Oakland Center
Wed 02:28:05 PM 36.6314 -119.3400 347° North 430 495 38,000  Level Oakland Center
Wed 02:29:06 PM 36.7464 -119.3797 345° North 431 496 38,000  Level Oakland Center
Wed 02:30:08 PM 36.8622 -119.4156 346° North 432 497 38,000  Level Oakland Center
Wed 02:31:09 PM 36.9767 -119.4547 345° North 429 494 38,000  Level Oakland Center
Wed 02:32:11 PM 37.0911 -119.4908 346° North 437 503 38,000  Level Oakland Center
Wed 02:33:12 PM 37.2053 -119.5258 346° North 424 488 38,000  Level Oakland Center
Wed 02:34:14 PM 37.3203 -119.5628 346° North 431 496 38,000  Level Oakland Center
Wed 02:35:15 PM 37.4425 -119.6017 346° North 423 487 38,000  Level Oakland Center
Wed 02:36:17 PM 37.5597 -119.6339 348° North 434 499 38,000  Level Oakland Center
Wed 02:37:18 PM 37.6694 -119.6708 345° North 414 476 38,000  Level Oakland Center
Wed 02:38:20 PM 37.7811 -119.7064 346° North 414 476 38,000  Level Oakland Center
Wed 02:39:21 PM 37.9169 -119.7506 346° North 419 482 38,000  Level Oakland Center
Wed 02:40:22 PM 38.0297 -119.7856 346° North 418 481 38,000  Level Oakland Center
Wed 02:41:24 PM 38.1403 -119.8219 345° North 415 478 38,000  Level Oakland Center
Wed 02:42:25 PM 38.2494 -119.8589 345° North 409 471 38,000  Level Oakland Center
Wed 02:43:27 PM 38.3608 -119.8950 346° North 412 474 38,000  Level Oakland Center
Wed 02:44:28 PM 38.4744 -119.9311 346° North 418 481 38,000  Level Oakland Center
Wed 02:45:29 PM 38.5875 -119.9675 346° North 420 483 38,000  Level Oakland Center
Wed 02:46:31 PM 38.7003 -120.0058 345° North 420 483 38,000  Level Oakland Center
Wed 02:47:32 PM 38.8336 -120.0506 345° North 416 479 38,000  Level Oakland Center
Wed 02:48:34 PM 38.9453 -120.0858 346° North 414 476 38,000  Level Oakland Center
Wed 02:49:35 PM 39.0444 -120.1200 345° North 412 474 38,000  Level Oakland Center
Wed 02:50:37 PM 39.1647 -120.1597 346° North 411 473 38,000  Level Oakland Center
Wed 02:51:38 PM 39.2747 -120.1956 346° North 409 471 38,000  Level Oakland Center
Wed 02:52:39 PM 39.3819 -120.2317 345° North 403 464 38,000  Level Oakland Center
Wed 02:53:41 PM 39.4900 -120.2678 346° North 402 463 38,000  Level Oakland Center
Wed 02:54:42 PM 39.5981 -120.3047 345° North 402 463 38,000  Level Oakland Center
Wed 02:55:44 PM 39.7286 -120.3489 345° North 404 465 38,000  Level Oakland Center
Wed 02:56:45 PM 39.8394 -120.3864 345° North 410 472 38,000  Level Oakland Center
Wed 02:57:47 PM 39.9489 -120.4225 346° North 408 470 38,000  Level Oakland Center
Wed 02:58:48 PM 40.0522 -120.4592 345° North 406 467 38,000  Level Oakland Center
Wed 02:59:49 PM 40.1619 -120.4956 346° North 405 466 38,000  Level Oakland Center
Wed 03:00:51 PM 40.2692 -120.5336 345° North 401 461 38,000  Level Oakland Center
Wed 03:01:52 PM 40.3839 -120.5744 345° North 405 466 38,000  Level Oakland Center
Wed 03:03:03 PM 40.5219 -120.6175 347° North 403 464 38,000  Level Seattle Center
Wed 03:03:55 PM 40.6058 -120.6511 343° North 398 458 38,000  Level Oakland Center
Wed 03:04:57 PM 40.7150 -120.6892 345° North 405 466 38,000  Level Oakland Center
Wed 03:05:58 PM 40.8236 -120.7269 345° North 406 467 38,000  Level Oakland Center
Wed 03:06:59 PM 40.9319 -120.7653 345° North 402 463 38,000  Level Oakland Center
Wed 03:08:01 PM 41.0611 -120.8106 345° North 401 461 38,000  Level Oakland Center
Wed 03:09:02 PM 41.1689 -120.8497 345° North 401 461 38,000  Level Oakland Center
Wed 03:10:04 PM 41.2767 -120.8864 346° North 402 463 38,000  Level Oakland Center
Wed 03:11:05 PM 41.3850 -120.9256 345° North 402 463 38,000  Level Oakland Center
Wed 03:12:07 PM 41.4919 -120.9639 345° North 400 460 38,000  Level Oakland Center
Wed 03:13:08 PM 41.6008 -121.0039 345° North 405 466 38,000  Level Oakland Center
Wed 03:14:09 PM 41.7086 -121.0411 346° North 402 463 38,000  Level Oakland Center
Wed 03:15:11 PM 41.8158 -121.0789 345° North 401 461 38,000  Level Oakland Center
Wed 03:16:12 PM 41.9425 -121.1247 345° North 395 455 38,000  Level Oakland Center
Wed 03:17:14 PM 42.0517 -121.1631 345° North 403 464 38,000  Level Oakland Center
Wed 03:18:18 PM 42.1553 -121.2011 345° North 398 458 38,000  Level Seattle Center
Wed 03:19:19 PM 42.2606 -121.2392 345° North 396 456 38,000  Level Seattle Center
Wed 03:20:20 PM 42.3650 -121.2783 345° North 394 453 38,000  Level Seattle Center
Wed 03:21:22 PM 42.4694 -121.3153 345° North 391 450 38,000  Level Seattle Center
Wed 03:22:23 PM 42.5936 -121.3603 345° North 389 448 38,000  Level Seattle Center
Wed 03:23:24 PM 42.6981 -121.3997 344° North 391 450 38,000  Level Seattle Center
Wed 03:24:25 PM 42.8039 -121.4408 344° North 395 455 38,000  Level Seattle Center
Wed 03:25:26 PM 42.9086 -121.4786 345° North 393 452 38,000  Level Seattle Center
Wed 03:26:27 PM 43.0144 -121.5147 346° North 392 451 38,000  Level Seattle Center
Wed 03:27:28 PM 43.1200 -121.5572 344° North 394 453 38,000  Level Seattle Center
Wed 03:28:29 PM 43.2258 -121.5981 344° North 395 455 38,000  Level Seattle Center
Wed 03:29:30 PM 43.3308 -121.6381 345° North 393 452 38,000  Level Seattle Center
Wed 03:30:31 PM 43.4344 -121.6778 344° North 389 448 38,000  Level Seattle Center
Wed 03:31:32 PM 43.5386 -121.7167 345° North 389 448 38,000  Level Seattle Center
Wed 03:32:33 PM 43.6636 -121.7636 345° North 389 448 38,000  Level Seattle Center
Wed 03:33:34 PM 43.7678 -121.8047 344° North 391 450 38,000  Level Seattle Center
Wed 03:34:36 PM 43.8722 -121.8439 345° North 393 452 38,000  Level Seattle Center
Wed 03:35:37 PM 43.9722 -121.8836 344° North 393 452 38,000  Level Seattle Center
Wed 03:36:38 PM 44.0769 -121.9211 346° North 391 450 38,000  Level Seattle Center
Wed 03:37:39 PM 44.1811 -121.9631 344° North 392 451 38,000  Level Seattle Center
Wed 03:38:40 PM 44.2875 -122.0039 345° North 395 455 38,000  Level Seattle Center
Wed 03:39:41 PM 44.4114 -122.0525 344° North 388 447 38,000  Level Seattle Center
Wed 03:40:42 PM 44.5156 -122.0936 344° North 390 449 38,000  Level Seattle Center
Wed 03:41:43 PM 44.6189 -122.1342 344° North 390 449 38,000  Level Seattle Center
Wed 03:42:44 PM 44.7236 -122.1747 345° North 390 449 38,000  Level Seattle Center
Wed 03:43:45 PM 44.8272 -122.2175 344° North 390 449 38,000  Level Seattle Center
Wed 03:44:46 PM 44.9314 -122.2600 344° North 391 450 38,000  Level Seattle Center
Wed 03:45:47 PM 45.0356 -122.3033 344° North 393 452 38,000  Level Seattle Center
Wed 03:46:49 PM 45.1375 -122.3428 345° North 387 445 38,000  Level Seattle Center
Wed 03:47:50 PM 45.2383 -122.3842 344° North 382 440 38,000  Level Seattle Center
Wed 03:48:51 PM 45.3394 -122.4256 344° North 380 437 38,000  Level Seattle Center
Wed 03:49:52 PM 45.4603 -122.4750 344° North 379 436 38,000  Level Seattle Center
Wed 03:50:53 PM 45.5594 -122.5158 344° North 375 432 38,000  Level Seattle Center
Wed 03:51:54 PM 45.6583 -122.5567 344° North 374 430 38,000 -344 Level Seattle Center
Wed 03:52:55 PM 45.7569 -122.5964 344° North 372 428 37,300 -1,033 Descending Seattle Center
Wed 03:53:56 PM 45.8578 -122.6236 349° North 372 428 35,900 -2,213 Descending Seattle Center
Wed 03:54:57 PM 45.9594 -122.6450 352° North 373 429 32,800 -3,098 Descending Seattle Center
Wed 03:55:58 PM 46.0664 -122.6700 351° North 381 438 29,600 -2,607 Descending Seattle Center
Wed 03:56:59 PM 46.1686 -122.6939 351° North 381 438 27,500 -2,066 Descending Seattle Center
Wed 03:58:00 PM 46.2647 -122.7150 351° North 366 421 25,400 -2,311 Descending Seattle Center
Wed 03:59:01 PM 46.3628 -122.8111 326° Northwest 356 410 22,800 -2,410 Descending Seattle Center
Wed 04:00:02 PM 46.4553 -122.8403 348° North 345 397 20,500 -1,918 Descending Seattle Center
Wed 04:01:03 PM 46.5464 -122.8239 North 338 389 18,900 -1,574 Descending Seattle Center
Wed 04:02:04 PM 46.6322 -122.7839 18° North 329 379 17,300 -1,794 Descending Seattle Center
Wed 04:02:40 PM 46.6850 -122.7594 18° North 321 369 16,000 -2,262 Descending Seattle Center
Wed 04:03:05 PM 46.7256 -122.7444 14° North 321 369 15,000 -2,093 Descending Seattle Center
Wed 04:04:06 PM 46.8092 -122.7061 17° North 314 361 13,000 -1,869 Descending Seattle Center
Wed 04:05:07 PM 46.8692 -122.6358 39° Northeast 316 364 11,200 -1,574 Descending Seattle Center
Wed 04:06:08 PM 46.9297 -122.5497 44° Northeast 307 353 9,800 -1,525 Descending Seattle Center
Wed 04:07:09 PM 46.9994 -122.4597 41° Northeast 283 326 8,100 -1,488 Descending Seattle Center
Wed 04:08:09 PM 47.0625 -122.4006 33° Northeast 259 298 6,800 -1,041 Descending Seattle Center
Wed 04:09:10 PM 47.1214 -122.3522 29° Northeast 243 280 6,000 -787 Descending Seattle Center
Wed 04:10:11 PM 47.1786 -122.3283 16° North 223 257 5,200 -738 Descending Seattle Center
Wed 04:11:12 PM 47.2308 -122.3189 North 190 219 4,500 -934 Descending Seattle Center
Wed 04:12:13 PM 47.2886 -122.3192 360° North 183 211 3,300 -984 Descending Seattle Center
Wed 04:13:14 PM 47.3317 -122.3189 360° North 181 208 2,500 -885 Descending Seattle Center
Wed 04:14:15 PM 47.3811 -122.3186 360° North 179 206 1,500 -893 Descending Seattle Center
Wed 04:15:15 PM 47.4261 -122.3186 360° North 132 152 700 -541 Descending Seattle Center
Wed 04:16:17 PM 47.4636 -122.3183 360° North 137 158 400 -290 Descending Seattle Center

Login

Don't have an account? Register now (free) for customized features, flight alerts, and more!